Map

Track Data

SID SEASON NUMBER BASIN SUBBASIN NAME ISO_TIME NATURE LAT LON WMO_WIND WMO_PRES WMO_AGENCY TRACK_TYPE DIST2LAND LANDFALL IFLAG USA_AGENCY USA_ATCF_ID USA_LAT USA_LON USA_RECORD USA_STATUS USA_WIND USA_PRES USA_SSHS USA_R34_NE USA_R34_SE USA_R34_SW USA_R34_NW USA_R50_NE USA_R50_SE USA_R50_SW USA_R50_NW USA_R64_NE USA_R64_SE USA_R64_SW USA_R64_NW USA_POCI USA_ROCI USA_RMW USA_EYE TOKYO_LAT TOKYO_LON TOKYO_GRADE TOKYO_WIND TOKYO_PRES TOKYO_R50_DIR TOKYO_R50_LONG TOKYO_R50_SHORT TOKYO_R30_DIR TOKYO_R30_LONG TOKYO_R30_SHORT TOKYO_LAND CMA_LAT CMA_LON CMA_CAT CMA_WIND CMA_PRES HKO_LAT HKO_LON HKO_CAT HKO_WIND HKO_PRES NEWDELHI_LAT NEWDELHI_LON NEWDELHI_GRADE NEWDELHI_WIND NEWDELHI_PRES NEWDELHI_CI NEWDELHI_DP NEWDELHI_POCI REUNION_LAT REUNION_LON REUNION_TYPE REUNION_WIND REUNION_PRES REUNION_TNUM REUNION_CI REUNION_RMW REUNION_R34_NE REUNION_R34_SE REUNION_R34_SW REUNION_R34_NW REUNION_R50_NE REUNION_R50_SE REUNION_R50_SW REUNION_R50_NW REUNION_R64_NE REUNION_R64_SE REUNION_R64_SW REUNION_R64_NW BOM_LAT BOM_LON BOM_TYPE BOM_WIND BOM_PRES BOM_TNUM BOM_CI BOM_RMW BOM_R34_NE BOM_R34_SE BOM_R34_SW BOM_R34_NW BOM_R50_NE BOM_R50_SE BOM_R50_SW BOM_R50_NW BOM_R64_NE BOM_R64_SE BOM_R64_SW BOM_R64_NW BOM_ROCI BOM_POCI BOM_EYE BOM_POS_METHOD BOM_PRES_METHOD NADI_LAT NADI_LON NADI_CAT NADI_WIND NADI_PRES WELLINGTON_LAT WELLINGTON_LON WELLINGTON_WIND WELLINGTON_PRES DS824_LAT DS824_LON DS824_STAGE DS824_WIND DS824_PRES TD9636_LAT TD9636_LON TD9636_STAGE TD9636_WIND TD9636_PRES TD9635_LAT TD9635_LON TD9635_WIND TD9635_PRES TD9635_ROCI NEUMANN_LAT NEUMANN_LON NEUMANN_CLASS NEUMANN_WIND NEUMANN_PRES MLC_LAT MLC_LON MLC_CLASS MLC_WIND MLC_PRES USA_GUST BOM_GUST BOM_GUST_PER REUNION_GUST REUNION_GUST_PER USA_SEAHGT USA_SEARAD_NE USA_SEARAD_SE USA_SEARAD_SW USA_SEARAD_NW STORM_SPEED STORM_DIR
1923250N22142 1923 59 WP MM NOT_NAMED 1923-09-06 22:00:00 NR 21.8000 142.100 main 1435 1387 __________O___ -1 21.8000 142.100 7 14 305
1923250N22142 1923 59 WP MM NOT_NAMED 1923-09-07 00:00:00 NR 22.0757 141.682 main 1387 1322 __________P___ -1 22.0757 141.682 7 14 305
1923250N22142 1923 59 WP MM NOT_NAMED 1923-09-07 03:00:00 NR 22.4849 141.055 main 1322 1255 __________P___ -1 22.4849 141.055 7 14 305
1923250N22142 1923 59 WP MM NOT_NAMED 1923-09-07 06:00:00 NR 22.8855 140.428 main 1255 1193 __________P___ -1 22.8855 140.428 7 14 304
1923250N22142 1923 59 WP MM NOT_NAMED 1923-09-07 09:00:00 NR 23.2739 139.806 main 1193 1176 __________P___ -1 23.2739 139.806 7 14 304
1923250N22142 1923 59 WP MM NOT_NAMED 1923-09-07 10:00:00 NR 23.4000 139.600 main 1176 1143 __________O___ -1 23.4000 139.600 7 14 303
1923250N22142 1923 59 WP MM NOT_NAMED 1923-09-07 12:00:00 NR 23.6468 139.191 main 1143 1084 __________P___ -1 23.6468 139.191 7 13 303
1923250N22142 1923 59 WP MM NOT_NAMED 1923-09-07 15:00:00 NR 24.0049 138.584 main 1084 1014 __________P___ -1 24.0049 138.584 7 13 303
1923250N22142 1923 59 WP MM NOT_NAMED 1923-09-07 18:00:00 NR 24.3513 137.985 main 1014 951 __________P___ -1 24.3513 137.985 7 13 302
1923250N22142 1923 59 WP MM NOT_NAMED 1923-09-07 21:00:00 NR 24.6889 137.395 main 951 930 __________P___ -1 24.6889 137.395 7 13 302
1923250N22142 1923 59 WP MM NOT_NAMED 1923-09-07 22:00:00 NR 24.8000 137.200 main 930 888 __________O___ -1 24.8000 137.200 7 13 303
1923250N22142 1923 59 WP MM NOT_NAMED 1923-09-08 00:00:00 NR 25.0374 136.813 main 888 817 __________P___ -1 25.0374 136.813 7 13 304
1923250N22142 1923 59 WP MM NOT_NAMED 1923-09-08 03:00:00 NR 25.3881 136.240 main 817 761 __________P___ -1 25.3881 136.240 7 12 303
1923250N22142 1923 59 WP MM NOT_NAMED 1923-09-08 06:00:00 NR 25.7184 135.669 main 761 702 __________P___ -1 25.7184 135.669 7 12 301
1923250N22142 1923 59 WP MM NOT_NAMED 1923-09-08 09:00:00 NR 26.0126 135.094 main 702 682 __________P___ -1 26.0126 135.094 7 12 299
1923250N22142 1923 59 WP MM NOT_NAMED 1923-09-08 10:00:00 NR 26.1000 134.900 main 682 642 __________O___ -1 26.1000 134.900 7 12 295
1923250N22142 1923 59 WP MM NOT_NAMED 1923-09-08 12:00:00 NR 26.2584 134.502 main 642 591 __________P___ -1 26.2584 134.502 7 12 292
1923250N22142 1923 59 WP MM NOT_NAMED 1923-09-08 15:00:00 NR 26.4587 133.900 main 591 552 __________P___ -1 26.4587 133.900 7 11 289
1923250N22142 1923 59 WP MM NOT_NAMED 1923-09-08 18:00:00 NR 26.6224 133.297 main 552 507 __________P___ -1 26.6224 133.297 7 11 286
1923250N22142 1923 59 WP MM NOT_NAMED 1923-09-08 21:00:00 NR 26.7589 132.698 main 507 500 __________P___ -1 26.7589 132.698 7 11 284
1923250N22142 1923 59 WP MM NOT_NAMED 1923-09-08 22:00:00 NR 26.8000 132.500 main 500 477 __________O___ -1 26.8000 132.500 7 11 284
1923250N22142 1923 59 WP MM NOT_NAMED 1923-09-09 00:00:00 NR 26.8913 132.100 main 477 453 __________P___ -1 26.8913 132.100 7 11 283
1923250N22142 1923 59 WP MM NOT_NAMED 1923-09-09 03:00:00 NR 27.0099 131.507 main 453 435 __________P___ -1 27.0099 131.507 7 11 282
1923250N22142 1923 59 WP MM NOT_NAMED 1923-09-09 06:00:00 NR 27.1063 130.929 main 435 424 __________P___ -1 27.1063 130.929 7 10 280
1923250N22142 1923 59 WP MM NOT_NAMED 1923-09-09 09:00:00 NR 27.1803 130.377 main 425 425 __________P___ -1 27.1803 130.377 7 10 278
1923250N22142 1923 59 WP MM NOT_NAMED 1923-09-09 10:00:00 NR 27.2000 130.200 main 426 426 __________O___ -1 27.2000 130.200 7 10 277
1923250N22142 1923 59 WP MM NOT_NAMED 1923-09-09 12:00:00 NR 27.2362 129.837 main 433 424 __________P___ -1 27.2362 129.837 7 9 275
1923250N22142 1923 59 WP MM NOT_NAMED 1923-09-09 15:00:00 NR 27.2719 129.316 main 434 434 __________P___ -1 27.2719 129.316 7 9 274
1923250N22142 1923 59 WP MM NOT_NAMED 1923-09-09 18:00:00 NR 27.2908 128.840 main 452 452 __________P___ -1 27.2908 128.840 7 8 272
1923250N22142 1923 59 WP MM NOT_NAMED 1923-09-09 21:00:00 NR 27.2987 128.423 main 468 468 __________P___ -1 27.2987 128.423 7 7 271
1923250N22142 1923 59 WP MM NOT_NAMED 1923-09-09 22:00:00 NR 27.3000 128.300 main 472 472 __________O___ -1 27.3000 128.300 7 6 271
1923250N22142 1923 59 WP MM NOT_NAMED 1923-09-10 00:00:00 NR 27.3050 128.079 main 480 480 __________P___ -1 27.3050 128.079 7 5 271
1923250N22142 1923 59 WP MM NOT_NAMED 1923-09-10 03:00:00 NR 27.3069 127.805 main 493 493 __________P___ -1 27.3069 127.805 7 4 270
1923250N22142 1923 59 WP MM NOT_NAMED 1923-09-10 06:00:00 NR 27.3046 127.576 main 502 502 __________P___ -1 27.3046 127.576 7 4 269
1923250N22142 1923 59 WP MM NOT_NAMED 1923-09-10 09:00:00 NR 27.3010 127.369 main 512 512 __________P___ -1 27.3010 127.369 7 4 269
1923250N22142 1923 59 WP MM NOT_NAMED 1923-09-10 10:00:00 NR 27.3000 127.300 main 518 518 __________O___ -1 27.3000 127.300 7 4 270
1923250N22142 1923 59 WP MM NOT_NAMED 1923-09-10 12:00:00 NR 27.2998 127.150 main 528 524 __________P___ -1 27.2998 127.150 7 4 270
1923250N22142 1923 59 WP MM NOT_NAMED 1923-09-10 15:00:00 NR 27.2996 126.930 main 524 506 __________P___ -1 27.2996 126.930 7 4 270
1923250N22142 1923 59 WP MM NOT_NAMED 1923-09-10 18:00:00 NR 27.2997 126.710 main 506 488 __________P___ -1 27.2997 126.710 7 4 270
1923250N22142 1923 59 WP MM NOT_NAMED 1923-09-10 21:00:00 NR 27.2999 126.480 main 488 479 __________P___ -1 27.2999 126.480 7 4 270
1923250N22142 1923 59 WP MM NOT_NAMED 1923-09-10 22:00:00 NR 27.3000 126.400 main 479 462 __________O___ -1 27.3000 126.400 7 5 271
1923250N22142 1923 59 WP MM NOT_NAMED 1923-09-11 00:00:00 NR 27.3027 126.220 main 462 436 __________P___ -1 27.3027 126.220 7 5 271
1923250N22142 1923 59 WP MM NOT_NAMED 1923-09-11 03:00:00 NR 27.3068 125.938 main 436 418 __________P___ -1 27.3068 125.938 7 5 271
1923250N22142 1923 59 WP MM NOT_NAMED 1923-09-11 06:00:00 NR 27.3081 125.654 main 418 389 __________P___ -1 27.3081 125.654 7 5 270
1923250N22142 1923 59 WP MM NOT_NAMED 1923-09-11 09:00:00 NR 27.3034 125.384 main 389 380 __________P___ -1 27.3034 125.384 7 5 269
1923250N22142 1923 59 WP MM NOT_NAMED 1923-09-11 10:00:00 NR 27.3000 125.300 main 380 361 __________O___ -1 27.3000 125.300 7 4 267
1923250N22142 1923 59 WP MM NOT_NAMED 1923-09-11 12:00:00 NR 27.2915 125.147 main 361 342 __________P___ -1 27.2915 125.147 7 4 265
1923250N22142 1923 59 WP MM NOT_NAMED 1923-09-11 15:00:00 NR 27.2726 124.936 main 342 328 __________P___ -1 27.2726 124.936 7 4 263
1923250N22142 1923 59 WP MM NOT_NAMED 1923-09-11 18:00:00 NR 27.2464 124.743 main 328 319 __________P___ -1 27.2464 124.743 7 3 260
1923250N22142 1923 59 WP MM NOT_NAMED 1923-09-11 21:00:00 NR 27.2129 124.560 main 319 310 __________P___ -1 27.2129 124.560 7 3 258
1923250N22142 1923 59 WP MM NOT_NAMED 1923-09-11 22:00:00 NR 27.2000 124.500 main 310 301 __________O___ -1 27.2000 124.500 7 3 257
1923250N22142 1923 59 WP MM NOT_NAMED 1923-09-12 00:00:00 NR 27.1749 124.378 main 301 288 __________P___ -1 27.1749 124.378 7 3 255
1923250N22142 1923 59 WP MM NOT_NAMED 1923-09-12 03:00:00 NR 27.1311 124.200 main 288 271 __________P___ -1 27.1311 124.200 7 3 253
1923250N22142 1923 59 WP MM NOT_NAMED 1923-09-12 06:00:00 NR 27.0799 124.028 main 271 262 __________P___ -1 27.0799 124.028 7 3 250
1923250N22142 1923 59 WP MM NOT_NAMED 1923-09-12 09:00:00 NR 27.0212 123.857 main 268 260 __________P___ -1 27.0212 123.857 7 3 248
1923250N22142 1923 59 WP MM NOT_NAMED 1923-09-12 10:00:00 NR 27.0000 123.800 main 260 252 __________O___ -1 27.0000 123.800 7 3 246
1923250N22142 1923 59 WP MM NOT_NAMED 1923-09-12 12:00:00 NR 26.9683 123.721 main 252 251 __________P___ -1 26.9683 123.721 7 2 244
1923250N22142 1923 59 WP MM NOT_NAMED 1923-09-12 15:00:00 NR 26.9147 123.602 main 251 243 __________P___ -1 26.9147 123.602 7 3 243
1923250N22142 1923 59 WP MM NOT_NAMED 1923-09-12 18:00:00 NR 26.8435 123.445 main 243 224 __________P___ -1 26.8435 123.445 7 4 244
1923250N22142 1923 59 WP MM NOT_NAMED 1923-09-12 21:00:00 NR 26.7425 123.206 main 224 219 __________P___ -1 26.7425 123.206 7 5 245
1923250N22142 1923 59 WP MM NOT_NAMED 1923-09-12 22:00:00 NR 26.7000 123.100 main 219 195 __________O___ -1 26.7000 123.100 3 8 249
1923250N22142 1923 59 WP MM NOT_NAMED 1923-09-13 00:00:00 NR 26.6066 122.814 main 195 151 __________P___ -1 26.6066 122.814 3 9 250
1923250N22142 1923 59 WP MM NOT_NAMED 1923-09-13 03:00:00 NR 26.4348 122.296 main 151 112 __________P___ -1 26.4348 122.296 3 10 249
1923250N22142 1923 59 WP MM NOT_NAMED 1923-09-13 06:00:00 NR 26.2270 121.728 main 112 89 __________P___ -1 26.2270 121.728 3 11 246
1923250N22142 1923 59 WP MM NOT_NAMED 1923-09-13 09:00:00 NR 25.9867 121.172 main 91 83 __________P___ -1 25.9867 121.172 3 11 243
1923250N22142 1923 59 WP MM NOT_NAMED 1923-09-13 10:00:00 NR 25.9000 121.000 main 87 83 __________O___ -1 25.9000 121.000 4 10 239
1923250N22142 1923 59 WP MM NOT_NAMED 1923-09-13 12:00:00 NR 25.7200 120.684 main 83 50 __________P___ -1 25.7200 120.684 4 10 235
1923250N22142 1923 59 WP MM NOT_NAMED 1923-09-13 15:00:00 NR 25.4250 120.247 main 50 30 __________P___ -1 25.4250 120.247 4 10 230
1923250N22142 1923 59 WP MM NOT_NAMED 1923-09-13 18:00:00 NR 25.1137 119.872 main 37 30 __________P___ -1 25.1137 119.872 4 9 224
1923250N22142 1923 59 WP MM NOT_NAMED 1923-09-13 21:00:00 NR 24.8016 119.577 main 52 45 __________P___ -1 24.8016 119.577 4 8 219
1923250N22142 1923 59 WP MM NOT_NAMED 1923-09-13 22:00:00 NR 24.7000 119.500 main 53 53 __________O___ -1 24.7000 119.500 4 7 212
1923250N22142 1923 59 WP MM NOT_NAMED 1923-09-14 00:00:00 NR 24.5105 119.377 main 67 64 __________P___ -1 24.5105 119.377 4 6 204
1923250N22142 1923 59 WP MM NOT_NAMED 1923-09-14 03:00:00 NR 24.2331 119.267 main 75 67 __________P___ -1 24.2331 119.267 4 6 195
1923250N22142 1923 59 WP MM NOT_NAMED 1923-09-14 06:00:00 NR 23.9608 119.220 main 82 90 __________P___ -1 23.9608 119.220 4 5 186
1923250N22142 1923 59 WP MM NOT_NAMED 1923-09-14 09:00:00 NR 23.6903 119.204 main 92 91 __________P___ -1 23.6903 119.204 4 5 0
1923250N22142 1923 59 WP MM NOT_NAMED 1923-09-14 10:00:00 NR 23.6000 119.200 main 91 91 __________O___ -1 23.6000 119.200 4 5 0
1923250N22142 1923 59 WP MM NOT_NAMED 1923-09-14 12:00:00 NR 23.4185 119.190 main 94 91 __________P___ -1 23.4185 119.190 4 6 186
1923250N22142 1923 59 WP MM NOT_NAMED 1923-09-14 15:00:00 NR 23.1445 119.168 main 92 92 __________P___ -1 23.1445 119.168 4 6 184
1923250N22142 1923 59 WP MM NOT_NAMED 1923-09-14 18:00:00 NR 22.8688 119.141 main 104 104 __________P___ -1 22.8688 119.141 4 6 186
1923250N22142 1923 59 WP MM NOT_NAMED 1923-09-14 21:00:00 NR 22.5923 119.110 main 114 114 __________P___ -1 22.5923 119.110 4 6 186
1923250N22142 1923 59 WP MM NOT_NAMED 1923-09-14 22:00:00 NR 22.5000 119.100 main 117 __________O___ -1 22.5000 119.100 4 6 0

Digital Typhoon Data and Search

About IBTrACS Database

This database is a web-friendly format of International Best Track Archive for Climate Stewardship (IBTrACS), a global best track data archive curated by NOAA dating back to 1842.

Updated: 2021-10-21